sensor_id;sensor_type;location;lat;lon;timestamp;P1;durP1;ratioP1;P2;durP2;ratioP2
75234;SDS011;63817;51.228;-1.472;2023-02-28T00:02:16;11.25;;;2.63;;
75234;SDS011;63817;51.228;-1.472;2023-02-28T00:04:44;6.00;;;2.33;;
75234;SDS011;63817;51.228;-1.472;2023-02-28T00:07:10;9.25;;;2.35;;
75234;SDS011;63817;51.228;-1.472;2023-02-28T00:09:35;7.68;;;2.95;;
75234;SDS011;63817;51.228;-1.472;2023-02-28T00:12:01;11.02;;;2.83;;
75234;SDS011;63817;51.228;-1.472;2023-02-28T00:14:35;9.20;;;2.95;;
75234;SDS011;63817;51.228;-1.472;2023-02-28T00:17:01;11.18;;;3.05;;
75234;SDS011;63817;51.228;-1.472;2023-02-28T00:19:26;8.23;;;2.65;;
75234;SDS011;63817;51.228;-1.472;2023-02-28T00:21:52;9.88;;;3.75;;
75234;SDS011;63817;51.228;-1.472;2023-02-28T00:24:17;8.80;;;3.28;;
75234;SDS011;63817;51.228;-1.472;2023-02-28T00:26:42;15.45;;;3.05;;
75234;SDS011;63817;51.228;-1.472;2023-02-28T00:29:08;14.05;;;3.35;;
75234;SDS011;63817;51.228;-1.472;2023-02-28T00:31:33;7.45;;;3.20;;
75234;SDS011;63817;51.228;-1.472;2023-02-28T00:33:59;7.95;;;3.10;;
75234;SDS011;63817;51.228;-1.472;2023-02-28T00:36:24;10.10;;;3.15;;
75234;SDS011;63817;51.228;-1.472;2023-02-28T00:38:49;8.63;;;3.20;;
75234;SDS011;63817;51.228;-1.472;2023-02-28T00:41:15;11.30;;;3.78;;
75234;SDS011;63817;51.228;-1.472;2023-02-28T00:43:40;10.50;;;2.40;;
75234;SDS011;63817;51.228;-1.472;2023-02-28T00:46:06;9.88;;;2.85;;
75234;SDS011;63817;51.228;-1.472;2023-02-28T00:48:32;6.30;;;2.33;;
75234;SDS011;63817;51.228;-1.472;2023-02-28T00:50:57;6.50;;;2.80;;
75234;SDS011;63817;51.228;-1.472;2023-02-28T00:53:22;10.45;;;2.63;;
75234;SDS011;63817;51.228;-1.472;2023-02-28T00:55:48;25.85;;;2.83;;
75234;SDS011;63817;51.228;-1.472;2023-02-28T00:58:14;11.70;;;3.33;;
75234;SDS011;63817;51.228;-1.472;2023-02-28T01:00:40;10.88;;;2.88;;
75234;SDS011;63817;51.228;-1.472;2023-02-28T01:03:05;15.02;;;2.83;;
75234;SDS011;63817;51.228;-1.472;2023-02-28T01:05:30;8.13;;;2.83;;
75234;SDS011;63817;51.228;-1.472;2023-02-28T01:07:56;14.80;;;3.03;;
75234;SDS011;63817;51.228;-1.472;2023-02-28T01:10:21;15.20;;;4.03;;
75234;SDS011;63817;51.228;-1.472;2023-02-28T01:12:46;13.02;;;2.95;;
75234;SDS011;63817;51.228;-1.472;2023-02-28T01:15:12;9.32;;;3.92;;
75234;SDS011;63817;51.228;-1.472;2023-02-28T01:17:37;15.43;;;3.30;;
75234;SDS011;63817;51.228;-1.472;2023-02-28T01:20:03;9.07;;;3.42;;
75234;SDS011;63817;51.228;-1.472;2023-02-28T01:22:29;11.02;;;3.72;;
75234;SDS011;63817;51.228;-1.472;2023-02-28T01:24:54;16.48;;;3.80;;
75234;SDS011;63817;51.228;-1.472;2023-02-28T01:27:20;11.25;;;4.47;;
75234;SDS011;63817;51.228;-1.472;2023-02-28T01:29:45;12.38;;;3.72;;
75234;SDS011;63817;51.228;-1.472;2023-02-28T01:32:11;16.25;;;4.25;;
75234;SDS011;63817;51.228;-1.472;2023-02-28T01:34:36;12.80;;;4.18;;
75234;SDS011;63817;51.228;-1.472;2023-02-28T01:37:01;8.70;;;3.20;;
75234;SDS011;63817;51.228;-1.472;2023-02-28T01:39:28;10.50;;;3.85;;
75234;SDS011;63817;51.228;-1.472;2023-02-28T01:41:54;18.67;;;4.82;;
75234;SDS011;63817;51.228;-1.472;2023-02-28T01:47:22;14.32;;;5.15;;
75234;SDS011;63817;51.228;-1.472;2023-02-28T01:49:48;11.50;;;4.70;;
75234;SDS011;63817;51.228;-1.472;2023-02-28T01:52:16;13.70;;;4.50;;
75234;SDS011;63817;51.228;-1.472;2023-02-28T01:54:43;11.60;;;4.22;;
75234;SDS011;63817;51.228;-1.472;2023-02-28T01:57:11;17.20;;;4.60;;
75234;SDS011;63817;51.228;-1.472;2023-02-28T01:59:45;16.33;;;4.15;;
75234;SDS011;63817;51.228;-1.472;2023-02-28T02:02:12;16.63;;;3.95;;
75234;SDS011;63817;51.228;-1.472;2023-02-28T02:07:37;14.23;;;4.15;;
75234;SDS011;63817;51.228;-1.472;2023-02-28T02:10:05;14.20;;;3.95;;
75234;SDS011;63817;51.228;-1.472;2023-02-28T02:20:57;20.75;;;5.15;;
75234;SDS011;63817;51.228;-1.472;2023-02-28T02:26:22;13.82;;;4.47;;
75234;SDS011;63817;51.228;-1.472;2023-02-28T02:29:05;22.45;;;5.03;;
75234;SDS011;63817;51.228;-1.472;2023-02-28T02:32:19;27.65;;;5.85;;
75234;SDS011;63817;51.228;-1.472;2023-02-28T02:35:19;17.58;;;5.70;;
75234;SDS011;63817;51.228;-1.472;2023-02-28T02:40:30;11.68;;;4.75;;
75234;SDS011;63817;51.228;-1.472;2023-02-28T02:43:03;9.90;;;5.65;;
75234;SDS011;63817;51.228;-1.472;2023-02-28T02:45:43;16.17;;;5.82;;
75234;SDS011;63817;51.228;-1.472;2023-02-28T02:48:18;31.42;;;8.18;;
75234;SDS011;63817;51.228;-1.472;2023-02-28T02:50:46;16.48;;;6.45;;
75234;SDS011;63817;51.228;-1.472;2023-02-28T02:53:17;18.85;;;6.65;;
75234;SDS011;63817;51.228;-1.472;2023-02-28T02:55:44;25.83;;;7.18;;
75234;SDS011;63817;51.228;-1.472;2023-02-28T02:58:16;18.52;;;6.88;;
75234;SDS011;63817;51.228;-1.472;2023-02-28T03:00:43;19.70;;;6.72;;
75234;SDS011;63817;51.228;-1.472;2023-02-28T03:03:11;23.27;;;7.70;;
75234;SDS011;63817;51.228;-1.472;2023-02-28T03:05:47;22.30;;;7.07;;
75234;SDS011;63817;51.228;-1.472;2023-02-28T03:08:14;17.98;;;7.05;;
75234;SDS011;63817;51.228;-1.472;2023-02-28T03:10:43;23.70;;;7.75;;
75234;SDS011;63817;51.228;-1.472;2023-02-28T03:13:18;19.48;;;7.78;;
75234;SDS011;63817;51.228;-1.472;2023-02-28T03:26:45;18.10;;;7.45;;
75234;SDS011;63817;51.228;-1.472;2023-02-28T03:29:18;19.92;;;6.68;;
75234;SDS011;63817;51.228;-1.472;2023-02-28T03:31:54;19.15;;;6.72;;
75234;SDS011;63817;51.228;-1.472;2023-02-28T03:34:31;23.40;;;7.53;;
75234;SDS011;63817;51.228;-1.472;2023-02-28T03:37:03;21.65;;;7.93;;
75234;SDS011;63817;51.228;-1.472;2023-02-28T03:39:33;21.13;;;7.50;;
75234;SDS011;63817;51.228;-1.472;2023-02-28T03:42:14;15.95;;;7.30;;
75234;SDS011;63817;51.228;-1.472;2023-02-28T03:44:42;23.52;;;8.90;;
75234;SDS011;63817;51.228;-1.472;2023-02-28T03:47:12;23.55;;;8.65;;
75234;SDS011;63817;51.228;-1.472;2023-02-28T03:49:42;19.35;;;7.95;;
75234;SDS011;63817;51.228;-1.472;2023-02-28T03:52:10;20.20;;;9.18;;
75234;SDS011;63817;51.228;-1.472;2023-02-28T03:54:38;26.67;;;9.30;;
75234;SDS011;63817;51.228;-1.472;2023-02-28T03:57:10;34.45;;;9.82;;
75234;SDS011;63817;51.228;-1.472;2023-02-28T04:02:10;26.73;;;9.98;;
75234;SDS011;63817;51.228;-1.472;2023-02-28T04:04:35;23.95;;;11.32;;
75234;SDS011;63817;51.228;-1.472;2023-02-28T04:07:07;29.48;;;10.82;;
75234;SDS011;63817;51.228;-1.472;2023-02-28T04:09:33;19.97;;;10.87;;
75234;SDS011;63817;51.228;-1.472;2023-02-28T04:11:59;28.83;;;11.63;;
75234;SDS011;63817;51.228;-1.472;2023-02-28T04:14:25;25.65;;;13.15;;
75234;SDS011;63817;51.228;-1.472;2023-02-28T04:16:50;32.00;;;14.75;;
75234;SDS011;63817;51.228;-1.472;2023-02-28T04:19:16;35.38;;;16.48;;
75234;SDS011;63817;51.228;-1.472;2023-02-28T04:21:45;41.15;;;17.75;;
75234;SDS011;63817;51.228;-1.472;2023-02-28T04:24:14;30.67;;;16.65;;
75234;SDS011;63817;51.228;-1.472;2023-02-28T04:26:45;33.75;;;18.60;;
75234;SDS011;63817;51.228;-1.472;2023-02-28T04:29:12;33.42;;;18.42;;
75234;SDS011;63817;51.228;-1.472;2023-02-28T04:31:38;29.90;;;16.92;;
75234;SDS011;63817;51.228;-1.472;2023-02-28T04:34:04;34.47;;;17.52;;
75234;SDS011;63817;51.228;-1.472;2023-02-28T04:36:30;27.73;;;15.65;;
75234;SDS011;63817;51.228;-1.472;2023-02-28T04:38:55;29.95;;;15.60;;
75234;SDS011;63817;51.228;-1.472;2023-02-28T04:41:22;33.35;;;15.02;;
75234;SDS011;63817;51.228;-1.472;2023-02-28T04:43:48;29.17;;;15.80;;
75234;SDS011;63817;51.228;-1.472;2023-02-28T04:46:13;29.75;;;16.20;;
75234;SDS011;63817;51.228;-1.472;2023-02-28T04:48:39;36.20;;;15.50;;
75234;SDS011;63817;51.228;-1.472;2023-02-28T04:51:09;27.58;;;14.02;;
75234;SDS011;63817;51.228;-1.472;2023-02-28T04:53:36;32.88;;;14.70;;
75234;SDS011;63817;51.228;-1.472;2023-02-28T04:56:03;26.00;;;13.00;;
75234;SDS011;63817;51.228;-1.472;2023-02-28T04:58:28;21.27;;;12.95;;
75234;SDS011;63817;51.228;-1.472;2023-02-28T05:00:56;31.67;;;13.10;;
75234;SDS011;63817;51.228;-1.472;2023-02-28T05:03:26;25.10;;;12.60;;
75234;SDS011;63817;51.228;-1.472;2023-02-28T05:05:52;28.17;;;12.20;;
75234;SDS011;63817;51.228;-1.472;2023-02-28T05:08:17;31.75;;;11.45;;
75234;SDS011;63817;51.228;-1.472;2023-02-28T05:10:42;23.85;;;10.70;;
75234;SDS011;63817;51.228;-1.472;2023-02-28T05:13:09;19.08;;;10.18;;
75234;SDS011;63817;51.228;-1.472;2023-02-28T05:15:36;24.38;;;10.02;;
75234;SDS011;63817;51.228;-1.472;2023-02-28T05:18:02;24.55;;;9.73;;
75234;SDS011;63817;51.228;-1.472;2023-02-28T05:20:27;16.17;;;8.65;;
75234;SDS011;63817;51.228;-1.472;2023-02-28T05:22:53;19.73;;;8.63;;
75234;SDS011;63817;51.228;-1.472;2023-02-28T05:25:19;17.20;;;9.35;;
75234;SDS011;63817;51.228;-1.472;2023-02-28T05:27:47;15.65;;;8.55;;
75234;SDS011;63817;51.228;-1.472;2023-02-28T05:30:12;19.42;;;8.88;;
75234;SDS011;63817;51.228;-1.472;2023-02-28T05:32:39;23.90;;;9.60;;
75234;SDS011;63817;51.228;-1.472;2023-02-28T05:35:07;21.58;;;8.73;;
75234;SDS011;63817;51.228;-1.472;2023-02-28T05:37:34;17.00;;;9.35;;
75234;SDS011;63817;51.228;-1.472;2023-02-28T05:39:59;20.38;;;8.90;;
75234;SDS011;63817;51.228;-1.472;2023-02-28T05:42:25;15.23;;;8.13;;
75234;SDS011;63817;51.228;-1.472;2023-02-28T05:44:50;18.70;;;8.00;;
75234;SDS011;63817;51.228;-1.472;2023-02-28T05:47:16;16.05;;;8.85;;
75234;SDS011;63817;51.228;-1.472;2023-02-28T05:49:42;16.80;;;8.55;;
75234;SDS011;63817;51.228;-1.472;2023-02-28T05:52:07;19.80;;;8.68;;
75234;SDS011;63817;51.228;-1.472;2023-02-28T05:54:33;18.00;;;8.40;;
75234;SDS011;63817;51.228;-1.472;2023-02-28T05:56:58;14.43;;;8.02;;
75234;SDS011;63817;51.228;-1.472;2023-02-28T05:59:24;24.63;;;8.48;;
75234;SDS011;63817;51.228;-1.472;2023-02-28T06:01:50;23.58;;;8.32;;
75234;SDS011;63817;51.228;-1.472;2023-02-28T06:04:18;16.15;;;8.60;;
75234;SDS011;63817;51.228;-1.472;2023-02-28T06:06:45;19.08;;;9.02;;
75234;SDS011;63817;51.228;-1.472;2023-02-28T06:09:11;21.98;;;9.65;;
75234;SDS011;63817;51.228;-1.472;2023-02-28T06:11:37;15.50;;;9.00;;
75234;SDS011;63817;51.228;-1.472;2023-02-28T06:14:02;21.25;;;8.07;;
75234;SDS011;63817;51.228;-1.472;2023-02-28T06:16:29;15.98;;;8.10;;
75234;SDS011;63817;51.228;-1.472;2023-02-28T06:18:59;17.40;;;7.53;;
75234;SDS011;63817;51.228;-1.472;2023-02-28T06:21:25;20.00;;;7.85;;
75234;SDS011;63817;51.228;-1.472;2023-02-28T06:23:52;18.00;;;7.15;;
75234;SDS011;63817;51.228;-1.472;2023-02-28T06:26:18;17.30;;;7.47;;
75234;SDS011;63817;51.228;-1.472;2023-02-28T06:28:44;24.17;;;8.07;;
75234;SDS011;63817;51.228;-1.472;2023-02-28T06:31:10;15.88;;;7.68;;
75234;SDS011;63817;51.228;-1.472;2023-02-28T06:33:38;15.98;;;7.15;;
75234;SDS011;63817;51.228;-1.472;2023-02-28T06:36:04;18.55;;;7.85;;
75234;SDS011;63817;51.228;-1.472;2023-02-28T06:38:30;15.40;;;7.30;;
75234;SDS011;63817;51.228;-1.472;2023-02-28T06:40:57;15.90;;;7.53;;
75234;SDS011;63817;51.228;-1.472;2023-02-28T06:43:23;15.65;;;7.22;;
75234;SDS011;63817;51.228;-1.472;2023-02-28T06:45:49;13.07;;;7.03;;
75234;SDS011;63817;51.228;-1.472;2023-02-28T06:48:15;14.23;;;6.53;;
75234;SDS011;63817;51.228;-1.472;2023-02-28T06:50:40;19.05;;;6.93;;
75234;SDS011;63817;51.228;-1.472;2023-02-28T06:53:05;16.48;;;6.65;;
75234;SDS011;63817;51.228;-1.472;2023-02-28T06:55:31;14.75;;;7.05;;
75234;SDS011;63817;51.228;-1.472;2023-02-28T06:57:57;14.13;;;6.53;;
75234;SDS011;63817;51.228;-1.472;2023-02-28T07:00:23;12.50;;;5.97;;
75234;SDS011;63817;51.228;-1.472;2023-02-28T07:02:50;12.63;;;6.45;;
75234;SDS011;63817;51.228;-1.472;2023-02-28T07:05:15;13.43;;;6.60;;
75234;SDS011;63817;51.228;-1.472;2023-02-28T07:07:40;19.25;;;6.80;;
75234;SDS011;63817;51.228;-1.472;2023-02-28T07:10:09;16.80;;;7.07;;
75234;SDS011;63817;51.228;-1.472;2023-02-28T07:12:39;13.23;;;5.90;;
75234;SDS011;63817;51.228;-1.472;2023-02-28T07:15:05;15.50;;;6.85;;
75234;SDS011;63817;51.228;-1.472;2023-02-28T07:17:31;12.82;;;6.85;;
75234;SDS011;63817;51.228;-1.472;2023-02-28T07:19:56;15.60;;;7.13;;
75234;SDS011;63817;51.228;-1.472;2023-02-28T07:22:21;14.77;;;7.90;;
75234;SDS011;63817;51.228;-1.472;2023-02-28T07:24:47;15.30;;;7.35;;
75234;SDS011;63817;51.228;-1.472;2023-02-28T07:27:13;20.15;;;8.27;;
75234;SDS011;63817;51.228;-1.472;2023-02-28T07:29:48;13.23;;;7.82;;
75234;SDS011;63817;51.228;-1.472;2023-02-28T07:32:14;11.88;;;7.65;;
75234;SDS011;63817;51.228;-1.472;2023-02-28T07:34:40;10.75;;;6.18;;
75234;SDS011;63817;51.228;-1.472;2023-02-28T07:37:05;9.40;;;6.30;;
75234;SDS011;63817;51.228;-1.472;2023-02-28T07:39:30;10.52;;;6.30;;
75234;SDS011;63817;51.228;-1.472;2023-02-28T07:41:56;10.18;;;5.68;;
75234;SDS011;63817;51.228;-1.472;2023-02-28T07:44:21;9.30;;;5.15;;
75234;SDS011;63817;51.228;-1.472;2023-02-28T07:46:47;10.00;;;5.53;;
75234;SDS011;63817;51.228;-1.472;2023-02-28T07:49:12;13.57;;;5.30;;
75234;SDS011;63817;51.228;-1.472;2023-02-28T07:51:38;15.25;;;6.88;;
75234;SDS011;63817;51.228;-1.472;2023-02-28T07:54:03;12.35;;;6.13;;
75234;SDS011;63817;51.228;-1.472;2023-02-28T07:56:29;12.63;;;6.68;;
75234;SDS011;63817;51.228;-1.472;2023-02-28T07:58:54;13.30;;;7.32;;
75234;SDS011;63817;51.228;-1.472;2023-02-28T08:01:19;15.48;;;6.45;;
75234;SDS011;63817;51.228;-1.472;2023-02-28T08:03:45;21.98;;;7.47;;
75234;SDS011;63817;51.228;-1.472;2023-02-28T08:06:15;13.15;;;6.25;;
75234;SDS011;63817;51.228;-1.472;2023-02-28T08:08:43;11.93;;;7.55;;
75234;SDS011;63817;51.228;-1.472;2023-02-28T08:11:09;11.57;;;6.93;;
75234;SDS011;63817;51.228;-1.472;2023-02-28T08:13:34;10.98;;;5.50;;
75234;SDS011;63817;51.228;-1.472;2023-02-28T08:16:01;10.50;;;6.03;;
75234;SDS011;63817;51.228;-1.472;2023-02-28T08:18:26;8.95;;;5.60;;
75234;SDS011;63817;51.228;-1.472;2023-02-28T08:20:52;21.88;;;6.70;;
75234;SDS011;63817;51.228;-1.472;2023-02-28T08:23:17;10.32;;;5.85;;
75234;SDS011;63817;51.228;-1.472;2023-02-28T08:25:42;13.23;;;6.15;;
75234;SDS011;63817;51.228;-1.472;2023-02-28T08:28:08;10.98;;;5.72;;
75234;SDS011;63817;51.228;-1.472;2023-02-28T08:30:33;10.63;;;5.60;;
75234;SDS011;63817;51.228;-1.472;2023-02-28T08:32:59;8.80;;;5.43;;
75234;SDS011;63817;51.228;-1.472;2023-02-28T08:35:24;11.57;;;5.82;;
75234;SDS011;63817;51.228;-1.472;2023-02-28T08:37:49;11.38;;;6.18;;
75234;SDS011;63817;51.228;-1.472;2023-02-28T08:40:15;9.40;;;5.28;;
75234;SDS011;63817;51.228;-1.472;2023-02-28T08:42:45;14.98;;;6.38;;
75234;SDS011;63817;51.228;-1.472;2023-02-28T08:45:11;12.65;;;7.00;;
75234;SDS011;63817;51.228;-1.472;2023-02-28T08:47:38;12.55;;;6.43;;
75234;SDS011;63817;51.228;-1.472;2023-02-28T08:50:03;8.27;;;5.68;;
75234;SDS011;63817;51.228;-1.472;2023-02-28T08:52:29;13.45;;;6.07;;
75234;SDS011;63817;51.228;-1.472;2023-02-28T08:54:55;12.93;;;5.80;;
75234;SDS011;63817;51.228;-1.472;2023-02-28T08:57:20;9.90;;;6.30;;
75234;SDS011;63817;51.228;-1.472;2023-02-28T08:59:45;11.95;;;5.45;;
75234;SDS011;63817;51.228;-1.472;2023-02-28T09:02:13;9.88;;;5.47;;
75234;SDS011;63817;51.228;-1.472;2023-02-28T09:04:39;11.93;;;6.43;;
75234;SDS011;63817;51.228;-1.472;2023-02-28T09:07:05;12.25;;;6.43;;
75234;SDS011;63817;51.228;-1.472;2023-02-28T09:09:31;10.23;;;5.88;;
75234;SDS011;63817;51.228;-1.472;2023-02-28T09:11:56;7.47;;;4.78;;
75234;SDS011;63817;51.228;-1.472;2023-02-28T09:14:22;9.38;;;5.40;;
75234;SDS011;63817;51.228;-1.472;2023-02-28T09:16:48;9.45;;;5.78;;
75234;SDS011;63817;51.228;-1.472;2023-02-28T09:19:14;10.55;;;6.70;;
75234;SDS011;63817;51.228;-1.472;2023-02-28T09:21:39;13.75;;;7.32;;
75234;SDS011;63817;51.228;-1.472;2023-02-28T09:24:05;10.90;;;6.80;;
75234;SDS011;63817;51.228;-1.472;2023-02-28T09:26:31;12.68;;;6.95;;
75234;SDS011;63817;51.228;-1.472;2023-02-28T09:28:56;11.77;;;6.82;;
75234;SDS011;63817;51.228;-1.472;2023-02-28T09:31:24;13.30;;;6.72;;
75234;SDS011;63817;51.228;-1.472;2023-02-28T09:33:52;12.77;;;6.78;;
75234;SDS011;63817;51.228;-1.472;2023-02-28T09:36:19;11.80;;;6.40;;
75234;SDS011;63817;51.228;-1.472;2023-02-28T09:38:44;11.88;;;6.38;;
75234;SDS011;63817;51.228;-1.472;2023-02-28T09:41:21;10.82;;;6.55;;
75234;SDS011;63817;51.228;-1.472;2023-02-28T09:43:49;10.45;;;5.65;;
75234;SDS011;63817;51.228;-1.472;2023-02-28T09:49:23;7.03;;;4.57;;
75234;SDS011;63817;51.228;-1.472;2023-02-28T09:52:03;6.85;;;4.13;;
75234;SDS011;63817;51.228;-1.472;2023-02-28T09:54:34;13.05;;;6.60;;
75234;SDS011;63817;51.228;-1.472;2023-02-28T09:59:52;9.90;;;4.13;;
75234;SDS011;63817;51.228;-1.472;2023-02-28T10:05:11;10.63;;;4.30;;
75234;SDS011;63817;51.228;-1.472;2023-02-28T10:10:32;6.45;;;2.97;;
75234;SDS011;63817;51.228;-1.472;2023-02-28T10:13:22;4.43;;;2.47;;
75234;SDS011;63817;51.228;-1.472;2023-02-28T10:16:34;9.45;;;3.88;;
75234;SDS011;63817;51.228;-1.472;2023-02-28T10:21:41;6.95;;;2.97;;
75234;SDS011;63817;51.228;-1.472;2023-02-28T10:24:18;6.63;;;2.72;;
75234;SDS011;63817;51.228;-1.472;2023-02-28T10:26:56;4.60;;;2.88;;
75234;SDS011;63817;51.228;-1.472;2023-02-28T10:29:26;11.40;;;4.30;;
75234;SDS011;63817;51.228;-1.472;2023-02-28T10:31:52;9.35;;;4.93;;
75234;SDS011;63817;51.228;-1.472;2023-02-28T10:34:17;7.47;;;3.92;;
75234;SDS011;63817;51.228;-1.472;2023-02-28T10:36:43;7.88;;;4.50;;
75234;SDS011;63817;51.228;-1.472;2023-02-28T10:42:01;16.98;;;7.55;;
75234;SDS011;63817;51.228;-1.472;2023-02-28T10:44:27;8.52;;;4.82;;
75234;SDS011;63817;51.228;-1.472;2023-02-28T10:46:52;11.02;;;5.60;;
75234;SDS011;63817;51.228;-1.472;2023-02-28T10:49:22;9.55;;;5.38;;
75234;SDS011;63817;51.228;-1.472;2023-02-28T10:51:52;6.63;;;4.03;;
75234;SDS011;63817;51.228;-1.472;2023-02-28T10:54:23;9.40;;;3.65;;
75234;SDS011;63817;51.228;-1.472;2023-02-28T11:00:06;6.68;;;3.45;;
75234;SDS011;63817;51.228;-1.472;2023-02-28T11:02:37;8.50;;;3.70;;
75234;SDS011;63817;51.228;-1.472;2023-02-28T11:08:02;4.28;;;2.40;;
75234;SDS011;63817;51.228;-1.472;2023-02-28T11:10:37;3.35;;;2.30;;
75234;SDS011;63817;51.228;-1.472;2023-02-28T11:13:03;4.00;;;2.30;;
75234;SDS011;63817;51.228;-1.472;2023-02-28T11:15:29;3.20;;;2.28;;
75234;SDS011;63817;51.228;-1.472;2023-02-28T11:18:00;2.50;;;1.80;;
75234;SDS011;63817;51.228;-1.472;2023-02-28T11:20:26;2.88;;;1.77;;
75234;SDS011;63817;51.228;-1.472;2023-02-28T11:22:54;3.85;;;2.25;;
75234;SDS011;63817;51.228;-1.472;2023-02-28T11:25:22;2.35;;;1.75;;
75234;SDS011;63817;51.228;-1.472;2023-02-28T11:28:01;4.07;;;2.05;;
75234;SDS011;63817;51.228;-1.472;2023-02-28T11:30:37;4.72;;;1.92;;
75234;SDS011;63817;51.228;-1.472;2023-02-28T11:33:21;2.50;;;1.73;;
75234;SDS011;63817;51.228;-1.472;2023-02-28T11:36:29;3.65;;;1.70;;
75234;SDS011;63817;51.228;-1.472;2023-02-28T11:38:58;3.60;;;2.00;;
75234;SDS011;63817;51.228;-1.472;2023-02-28T11:46:52;3.47;;;2.40;;
75234;SDS011;63817;51.228;-1.472;2023-02-28T11:49:27;3.08;;;2.53;;
75234;SDS011;63817;51.228;-1.472;2023-02-28T11:51:59;3.53;;;2.65;;
75234;SDS011;63817;51.228;-1.472;2023-02-28T11:55:00;3.58;;;2.33;;
75234;SDS011;63817;51.228;-1.472;2023-02-28T11:57:41;4.60;;;2.45;;
75234;SDS011;63817;51.228;-1.472;2023-02-28T12:05:41;6.97;;;2.30;;
75234;SDS011;63817;51.228;-1.472;2023-02-28T12:19:18;5.63;;;3.20;;
75234;SDS011;63817;51.228;-1.472;2023-02-28T12:24:26;6.10;;;3.83;;
75234;SDS011;63817;51.228;-1.472;2023-02-28T12:26:53;4.95;;;3.67;;
75234;SDS011;63817;51.228;-1.472;2023-02-28T12:29:26;7.53;;;3.80;;
75234;SDS011;63817;51.228;-1.472;2023-02-28T12:32:12;7.00;;;3.53;;
75234;SDS011;63817;51.228;-1.472;2023-02-28T12:34:44;6.88;;;3.80;;
75234;SDS011;63817;51.228;-1.472;2023-02-28T12:37:25;5.68;;;3.40;;
75234;SDS011;63817;51.228;-1.472;2023-02-28T12:40:00;6.32;;;3.83;;
75234;SDS011;63817;51.228;-1.472;2023-02-28T12:42:52;9.07;;;3.45;;
75234;SDS011;63817;51.228;-1.472;2023-02-28T12:45:19;6.72;;;3.65;;
75234;SDS011;63817;51.228;-1.472;2023-02-28T12:47:48;4.82;;;3.08;;
75234;SDS011;63817;51.228;-1.472;2023-02-28T12:50:21;4.40;;;3.40;;
75234;SDS011;63817;51.228;-1.472;2023-02-28T12:57:57;6.38;;;3.00;;
75234;SDS011;63817;51.228;-1.472;2023-02-28T13:00:33;4.75;;;3.35;;
75234;SDS011;63817;51.228;-1.472;2023-02-28T13:10:42;5.45;;;3.25;;
75234;SDS011;63817;51.228;-1.472;2023-02-28T13:13:17;6.15;;;3.05;;
75234;SDS011;63817;51.228;-1.472;2023-02-28T13:18:43;5.65;;;3.13;;
75234;SDS011;63817;51.228;-1.472;2023-02-28T13:21:23;4.05;;;2.50;;
75234;SDS011;63817;51.228;-1.472;2023-02-28T13:26:22;8.65;;;2.85;;
75234;SDS011;63817;51.228;-1.472;2023-02-28T13:31:13;4.22;;;2.50;;
75234;SDS011;63817;51.228;-1.472;2023-02-28T13:46:36;6.50;;;3.13;;
75234;SDS011;63817;51.228;-1.472;2023-02-28T13:51:48;5.80;;;3.47;;
75234;SDS011;63817;51.228;-1.472;2023-02-28T14:02:39;6.75;;;3.47;;
75234;SDS011;63817;51.228;-1.472;2023-02-28T14:07:50;4.10;;;2.95;;
75234;SDS011;63817;51.228;-1.472;2023-02-28T14:10:25;4.72;;;2.80;;
75234;SDS011;63817;51.228;-1.472;2023-02-28T14:12:57;5.22;;;3.50;;
75234;SDS011;63817;51.228;-1.472;2023-02-28T14:15:39;5.90;;;3.27;;
75234;SDS011;63817;51.228;-1.472;2023-02-28T14:18:11;6.18;;;3.60;;
75234;SDS011;63817;51.228;-1.472;2023-02-28T14:26:31;6.40;;;3.42;;
75234;SDS011;63817;51.228;-1.472;2023-02-28T14:31:39;6.55;;;3.80;;
75234;SDS011;63817;51.228;-1.472;2023-02-28T14:36:43;8.20;;;4.70;;
75234;SDS011;63817;51.228;-1.472;2023-02-28T14:39:20;8.30;;;4.13;;
75234;SDS011;63817;51.228;-1.472;2023-02-28T14:41:47;5.63;;;3.17;;
75234;SDS011;63817;51.228;-1.472;2023-02-28T14:44:16;6.85;;;3.83;;
75234;SDS011;63817;51.228;-1.472;2023-02-28T14:46:50;10.23;;;4.97;;
75234;SDS011;63817;51.228;-1.472;2023-02-28T14:52:11;8.15;;;4.68;;
75234;SDS011;63817;51.228;-1.472;2023-02-28T14:54:40;7.35;;;3.97;;
75234;SDS011;63817;51.228;-1.472;2023-02-28T14:57:06;6.90;;;3.90;;
75234;SDS011;63817;51.228;-1.472;2023-02-28T14:59:36;5.65;;;3.72;;
75234;SDS011;63817;51.228;-1.472;2023-02-28T15:02:15;8.02;;;4.00;;
75234;SDS011;63817;51.228;-1.472;2023-02-28T15:07:24;6.18;;;3.83;;
75234;SDS011;63817;51.228;-1.472;2023-02-28T15:15:22;6.47;;;3.15;;
75234;SDS011;63817;51.228;-1.472;2023-02-28T15:17:52;5.53;;;3.95;;
75234;SDS011;63817;51.228;-1.472;2023-02-28T15:20:19;7.05;;;3.65;;
75234;SDS011;63817;51.228;-1.472;2023-02-28T15:22:46;6.05;;;3.75;;
75234;SDS011;63817;51.228;-1.472;2023-02-28T15:25:13;6.07;;;3.80;;
75234;SDS011;63817;51.228;-1.472;2023-02-28T15:27:50;7.57;;;4.60;;
75234;SDS011;63817;51.228;-1.472;2023-02-28T15:30:20;7.05;;;4.45;;
75234;SDS011;63817;51.228;-1.472;2023-02-28T15:33:03;8.13;;;4.63;;
75234;SDS011;63817;51.228;-1.472;2023-02-28T15:35:42;10.32;;;6.25;;
75234;SDS011;63817;51.228;-1.472;2023-02-28T15:38:16;15.13;;;5.57;;
75234;SDS011;63817;51.228;-1.472;2023-02-28T15:40:53;20.73;;;7.90;;
75234;SDS011;63817;51.228;-1.472;2023-02-28T15:43:33;7.45;;;4.82;;
75234;SDS011;63817;51.228;-1.472;2023-02-28T15:48:36;8.45;;;5.32;;
75234;SDS011;63817;51.228;-1.472;2023-02-28T15:53:34;9.25;;;4.68;;
75234;SDS011;63817;51.228;-1.472;2023-02-28T15:56:12;8.32;;;5.03;;
75234;SDS011;63817;51.228;-1.472;2023-02-28T15:58:56;7.28;;;4.45;;
75234;SDS011;63817;51.228;-1.472;2023-02-28T16:01:28;7.50;;;4.50;;
75234;SDS011;63817;51.228;-1.472;2023-02-28T16:03:56;7.10;;;4.10;;
75234;SDS011;63817;51.228;-1.472;2023-02-28T16:06:26;7.80;;;4.82;;
75234;SDS011;63817;51.228;-1.472;2023-02-28T16:08:57;7.45;;;3.35;;
75234;SDS011;63817;51.228;-1.472;2023-02-28T16:11:22;6.57;;;3.67;;
75234;SDS011;63817;51.228;-1.472;2023-02-28T16:13:48;4.00;;;3.03;;
75234;SDS011;63817;51.228;-1.472;2023-02-28T16:16:15;3.70;;;2.70;;
75234;SDS011;63817;51.228;-1.472;2023-02-28T16:18:42;4.43;;;2.28;;
75234;SDS011;63817;51.228;-1.472;2023-02-28T16:21:08;2.80;;;2.03;;
75234;SDS011;63817;51.228;-1.472;2023-02-28T16:23:33;3.03;;;2.42;;
75234;SDS011;63817;51.228;-1.472;2023-02-28T16:25:59;3.63;;;2.47;;
75234;SDS011;63817;51.228;-1.472;2023-02-28T16:28:25;3.40;;;2.10;;
75234;SDS011;63817;51.228;-1.472;2023-02-28T16:30:57;3.75;;;2.17;;
75234;SDS011;63817;51.228;-1.472;2023-02-28T16:33:24;3.55;;;2.30;;
75234;SDS011;63817;51.228;-1.472;2023-02-28T16:35:50;4.57;;;2.40;;
75234;SDS011;63817;51.228;-1.472;2023-02-28T16:38:15;3.78;;;2.28;;
75234;SDS011;63817;51.228;-1.472;2023-02-28T16:40:40;2.83;;;2.00;;
75234;SDS011;63817;51.228;-1.472;2023-02-28T16:43:07;4.18;;;2.33;;
75234;SDS011;63817;51.228;-1.472;2023-02-28T16:45:34;4.57;;;2.45;;
75234;SDS011;63817;51.228;-1.472;2023-02-28T16:48:00;4.40;;;2.58;;
75234;SDS011;63817;51.228;-1.472;2023-02-28T16:50:29;3.22;;;2.55;;
75234;SDS011;63817;51.228;-1.472;2023-02-28T16:52:55;3.50;;;2.90;;
75234;SDS011;63817;51.228;-1.472;2023-02-28T16:55:22;5.22;;;3.13;;
75234;SDS011;63817;51.228;-1.472;2023-02-28T16:57:50;5.55;;;3.58;;
75234;SDS011;63817;51.228;-1.472;2023-02-28T17:00:17;8.50;;;3.85;;
75234;SDS011;63817;51.228;-1.472;2023-02-28T17:02:43;7.93;;;4.32;;
75234;SDS011;63817;51.228;-1.472;2023-02-28T17:05:10;6.03;;;4.07;;
75234;SDS011;63817;51.228;-1.472;2023-02-28T17:07:36;5.68;;;4.25;;
75234;SDS011;63817;51.228;-1.472;2023-02-28T17:10:01;9.10;;;4.60;;
75234;SDS011;63817;51.228;-1.472;2023-02-28T17:12:33;10.20;;;4.22;;